Pagrindinis puslapis
METAR-TAF:

METAR-TAF

Oro uostai :

Bisha, Saudo Arabija

platuma: 19-59N, ilguma: 042-37E, Aukštis: 1167 m

Dabartinis oras

Ataskaita buvo paskelbta 1 valandą ir 8 minutes, ne 16:00 UTC
Vėjas 6 kt iš Vakarų
Temperatūra 20°C
Drėgmė 46%
Slėgis 1016 hPa
Matomumas 10 km arba daugiau
nėra debesų žemiau 1500 m ir nėra kamuolinių lietaus debesų

METAR: OEBH 221600Z 26006KT CAVOK 20/08 Q1016 NOSIG

Laikas: 20:08 (17:08 UTC)

Prognozė

Ataskaita buvo paskelbta 6 valandos ir 8 minutes, ne 11:00 UTC
Prognozė galioja nuo 22 metu 12 UTC su 23 metu 18 UTC
Vėjas 10 kt iš Pietvakarių su gūsio iki 20 kt
Matomumas: 8000 m
Laikinai
nuo 22 metu 12 UTC su 22 metu 18 UTC
Matomumas: 5000 m
dulkės, Dulkes pustymas
Tapsmas
nuo 22 metu 18 UTC su 22 metu 20 UTC
Vėjas 3 kt nuo kintamojo kryptimis

TAF: OEBH 221100Z 2212/2318 23010G20KT 8000 NSC TEMPO 2212/2218 5000 DU BLDU BECMG 2218/2220 VRB03KT

Orai ataskaitas ir orų prognozės (METAR, TAF).

turimą stotys yra geltonos ir raudonos taškus žemėlapyje.

Perkelti pele per norėdami pamatyti stoties vardą.

Tada spustelėkite, norėdami matyti oro stebėjimo ir prognozės.

Norėdami pakeisti žemėlapį: spustelėkite ant žalios mygtukų su juodo kryžiaus žemyn,; žalią mygtuką su brūkšneliu, jei norite nutolinti; arba žalių rodyklių gretimoms žemėlapius.


METAR-TAF: